Offutt Air Force Base
KOFF : now visible

Airfield :











YOU CAN JOIN US ON...

 
LOGIN :

Register | Disclaimer

   EN    FR    IT 

 









Legend :    VFR   Marginal VFR   IFR   Intensive IFR   Very Intensive IFR
Visi :
Ceiling :
>= 8 km
>= 3000ft
5 to 8 km
1000 to 3000 ft
1500m to 5 km
500 to 1000 ft
800 to 1500m
200 to 500 ft
< 800m
< 200 ft
Symbols :   Thunderstorms  Fog  Heavy snow  Heavy precipitations  Wind > 20 kt






- Airport Elevation : 1052 ft


KOFF - Offutt Air Force Base

CURRENT METAR :
  • 250856Z AUTO 27005KT 9SM -RA BKN007 OVC050 18/17 A2985 RMK AO2 RAB26 SLP106 P0000 60000 T01800172 53007 $

EXPIRED METARs :
  • 250844Z AUTO 27003KT 10SM -RA SCT007 BKN050 OVC110 18/17 A2985 RMK AO2 RAB26 SLP106 $
  • 250829Z AUTO 22003KT 10SM -RA FEW007 FEW050 BKN110 18/17 A2985 RMK AO2 RAB26 SLP106 $
  • 250756Z AUTO 26003KT 10SM FEW130 18/17 A2982 RMK AO2 LTG DSNT E SLP095 T01780170 $
  • 250656Z AUTO 35003KT 10SM CLR 17/17 A2982 RMK AO2 SLP096 T01740167 $
  • 250611Z AUTO 28004KT 9SM SCT018 18/17 A2983 RMK AO2 SLP099 $
  • 250556Z AUTO 26004KT 10SM BKN018 17/17 A2983 RMK AO2 BKN V SCT SLP099 T01710166 10192 20167 402800165 55004 $

TAF TAF KOFF
Valid from the 25 at 02:00 until the 26 at 08:00 UTC


250200Z 2502/2608 VRB06KT 9999 BKN030 QNH2981INS
BECMG 2511/2512 33009KT 8000 -SHRA OVC015 QNH2987INS
TEMPO 2512/2514 4800 -TSRA OVC008CB
BECMG 2519/2520 33012KT 9999 NSW OVC020 QNH2987INS
BECMG 2523/2524 VRB06KT 9999 BKN030 QNH2988INS TX23/2521Z TN17/2510Z
KZMP FIR / North America



MET'MAP, your aeronautical weather chart ! - Copyright ORBIFLY December 2007 - Disclaimer

ORBIFLY MET'MAP TEAM :

Programming & Development : Alexandra Zaïnal
Concept & original design : Baudouin d'Aumeries
Assistance for programming : Marc-Olivier Méhu
Technical & hardware support : Manuel Goepfert

Contact : metmap@orbifly.com




SOURCES & CREDITS :

   NOAA       Earth
Advisory